Time;durP1;ratioP1;P1;durP2;ratioP2;P2;SDS_P1;SDS_P2;PMS_P1;PMS_P2;Temp;Humidity;BMP_temperature;BMP_pressure;BME280_temperature;BME280_humidity;BME280_pressure;Samples;Min_cycle;Max_cycle;Signal;HPM_P1;HPM_P2
2023/04/13 00:00:34;;;;;;;7.80;7.30;;;;;;;11.03;100.00;15479.16;5094043;28;20191;-61
2023/04/13 00:03:01;;;;;;;7.47;7.17;;;;;;;11.12;100.00;17088.69;5094259;28;20631;-62
2023/04/13 00:05:28;;;;;;;7.97;7.57;;;;;;;11.10;100.00;17731.16;5094264;28;20185;-62
2023/04/13 00:07:56;;;;;;;8.30;7.80;;;;;;;10.98;100.00;19013.13;5093750;28;20216;-62
2023/04/13 00:10:24;;;;;;;8.47;7.67;;;;;;;10.95;100.00;19012.03;5094144;28;20574;-61
2023/04/13 00:12:51;;;;;;;7.70;7.30;;;;;;;11.07;100.00;19337.88;5093598;28;20227;-62
2023/04/13 00:15:19;;;;;;;8.10;7.60;;;;;;;11.05;100.00;19337.31;5093445;28;20551;-63
2023/04/13 00:17:50;;;;;;;7.70;7.40;;;;;;;10.87;100.00;19009.31;5094028;28;20184;-62
2023/04/13 00:20:17;;;;;;;7.73;7.43;;;;;;;10.97;100.00;19977.63;5093935;28;20282;-61
2023/04/13 00:22:45;;;;;;;8.23;7.83;;;;;;;11.02;100.00;18371.28;5093922;28;20612;-62
2023/04/13 00:25:14;;;;;;;8.40;7.80;;;;;;;11.01;100.00;18049.56;5093486;28;20195;-62
2023/04/13 00:27:41;;;;;;;8.13;7.77;;;;;;;10.94;100.00;16761.53;5093449;28;20261;-62
2023/04/13 00:30:10;;;;;;;7.90;7.60;;;;;;;10.89;100.00;16438.59;5093446;28;20279;-61
2023/04/13 00:32:39;;;;;;;8.40;7.90;;;;;;;10.50;100.00;14500.47;5093413;28;20188;-61
2023/04/13 00:35:07;;;;;;;8.40;8.00;;;;;;;10.60;100.00;10012.94;5093357;28;20188;-62
2023/04/13 00:37:34;;;;;;;9.13;8.63;;;;;;;10.46;100.00;7127.44;5093305;28;20181;-62
2023/04/13 00:40:01;;;;;;;8.83;8.43;;;;;;;10.32;100.00;4245.53;5093555;28;20203;-62
2023/04/13 00:42:28;;;;;;;9.37;8.77;;;;;;;9.79;100.00;1364.66;5093508;28;20590;-61
2023/04/13 00:44:55;;;;;;;9.80;9.10;;;;;;;10.22;100.00;409.53;5093268;28;20246;-62
2023/04/13 00:47:26;;;;;;;9.23;8.53;;;;;;;10.19;100.00;-1825.44;5093339;28;20230;-61
2023/04/13 00:49:55;;;;;;;9.13;8.53;;;;;;;10.04;100.00;-3101.81;5093326;28;20635;-62
2023/04/13 00:52:22;;;;;;;10.33;9.63;;;;;;;10.08;100.00;-3739.69;5093024;28;20191;-62
2023/04/13 00:54:50;;;;;;;10.30;9.53;;;;;;;9.72;100.00;-4695.38;5092961;28;20188;-61
2023/04/13 00:57:18;;;;;;;9.70;9.10;;;;;;;9.95;100.00;-5333.34;5092915;28;20248;-61
2023/04/13 00:59:48;;;;;;;9.63;9.03;;;;;;;9.89;100.00;-5333.16;5092840;28;20207;-62
2023/04/13 01:02:14;;;;;;;9.97;9.13;;;;;;;9.88;100.00;-4377.03;5093009;28;20220;-62
2023/04/13 01:04:44;;;;;;;10.20;9.50;;;;;;;10.01;100.00;-4058.47;5092733;28;20191;-62
2023/04/13 01:07:18;;;;;;;9.97;9.40;;;;;;;10.02;100.00;-3739.63;5092556;28;20203;-63
2023/04/13 01:09:52;;;;;;;10.17;9.60;;;;;;;9.83;100.00;-3101.84;5092691;28;20230;-63
2023/04/13 01:12:26;;;;;;;10.43;9.67;;;;;;;9.93;100.00;-3101.81;5092680;28;20292;-62
2023/04/13 01:15:00;;;;;;;9.90;9.37;;;;;;;10.00;100.00;-3101.81;5092624;28;20196;-61
2023/04/13 01:17:31;;;;;;;9.87;9.27;;;;;;;9.94;100.00;-3101.81;5092925;28;20187;-62
2023/04/13 01:20:00;;;;;;;10.17;9.57;;;;;;;9.93;100.00;-3739.53;5092472;28;20188;-61
2023/04/13 01:22:30;;;;;;;8.60;8.20;;;;;;;9.96;100.00;-3739.56;5092515;28;20191;-62
2023/04/13 01:25:10;;;;;;;9.10;8.40;;;;;;;10.02;100.00;-3420.75;5092431;28;20184;-62
2023/04/13 01:27:46;;;;;;;9.47;8.87;;;;;;;10.05;100.00;-3420.75;5090504;28;20204;-61
2023/04/13 01:30:15;;;;;;;8.97;8.47;;;;;;;10.01;100.00;-3420.72;5092361;28;20192;-62
2023/04/13 01:32:44;;;;;;;9.17;8.67;;;;;;;10.01;100.00;-3739.63;5092397;28;20274;-62
2023/04/13 01:35:11;;;;;;;8.77;8.37;;;;;;;10.06;100.00;-4058.53;5092231;28;20192;-63
2023/04/13 01:37:38;;;;;;;9.53;8.60;;;;;;;10.11;100.00;-4377.47;5092135;28;20200;-61
2023/04/13 01:40:10;;;;;;;7.93;7.53;;;;;;;10.02;100.00;-4377.31;5092506;28;20657;-62
2023/04/13 01:42:37;;;;;;;8.77;8.37;;;;;;;10.00;100.00;-4696.06;5092079;28;20275;-61
2023/04/13 01:45:10;;;;;;;8.17;7.77;;;;;;;10.17;100.00;-5334.13;5092371;28;20265;-62
2023/04/13 01:47:39;;;;;;;9.27;8.80;;;;;;;10.23;100.00;-4696.59;5092373;28;20200;-62
2023/04/13 01:50:10;;;;;;;8.73;8.33;;;;;;;10.32;100.00;-5334.66;5092039;28;20180;-62
2023/04/13 01:52:39;;;;;;;8.83;8.43;;;;;;;10.38;100.00;-5334.84;5092313;28;20207;-62
2023/04/13 01:55:07;;;;;;;8.50;7.90;;;;;;;10.16;100.00;-5015.28;5092184;28;20184;-62
2023/04/13 01:57:35;;;;;;;8.30;7.90;;;;;;;10.41;100.00;-4059.03;5092191;28;20699;-62
2023/04/13 02:00:13;;;;;;;8.57;8.17;;;;;;;10.46;100.00;-3740.03;5091863;28;20631;-62
2023/04/13 02:02:43;;;;;;;8.33;8.00;;;;;;;10.45;100.00;-3101.75;5091867;28;20240;-61
2023/04/13 02:05:10;;;;;;;8.63;8.03;;;;;;;10.41;100.00;-1505.69;5092087;28;20634;-62
2023/04/13 02:07:40;;;;;;;8.70;7.97;;;;;;;10.40;100.00;-547.72;5092009;28;20677;-61
2023/04/13 02:10:08;;;;;;;8.23;7.83;;;;;;;10.25;100.00;90.31;5091803;28;20188;-62
2023/04/13 02:12:35;;;;;;;8.47;7.97;;;;;;;10.23;100.00;-229.16;5091492;28;20234;-62
2023/04/13 02:15:02;;;;;;;8.53;8.13;;;;;;;10.15;100.00;-229.53;5091536;28;20192;-60
2023/04/13 02:17:29;;;;;;;9.43;8.57;;;;;;;10.10;100.00;-229.75;5091655;28;20188;-61
2023/04/13 02:20:00;;;;;;;9.33;8.73;;;;;;;9.90;100.00;-549.84;5091882;28;20194;-61
2023/04/13 02:22:27;;;;;;;9.03;8.53;;;;;;;9.82;100.00;-1188.28;5091961;28;20623;-61
2023/04/13 02:24:55;;;;;;;9.23;8.50;;;;;;;9.82;100.00;-2145.19;5091833;28;20192;-62
2023/04/13 02:27:23;;;;;;;8.67;8.17;;;;;;;9.79;100.00;-2464.16;5091551;28;20314;-61
2023/04/13 02:29:51;;;;;;;9.10;8.60;;;;;;;9.76;100.00;-2464.19;5091767;28;20195;-61
2023/04/13 02:32:18;;;;;;;9.03;8.63;;;;;;;9.47;100.00;-2783.22;5091724;28;20207;-61
2023/04/13 02:34:46;;;;;;;9.80;9.03;;;;;;;9.54;100.00;-3420.56;5091433;28;20192;-61
2023/04/13 02:37:14;;;;;;;9.67;9.07;;;;;;;9.54;100.00;-3739.19;5091707;28;20179;-61
2023/04/13 02:39:41;;;;;;;10.03;9.23;;;;;;;9.58;100.00;-3739.22;5094170;28;20200;-61
2023/04/13 02:42:09;;;;;;;10.33;9.57;;;;;;;9.45;100.00;-3739.09;5095757;28;20562;-61
2023/04/13 02:44:37;;;;;;;10.40;9.67;;;;;;;9.62;100.00;-3739.28;5095778;28;20184;-61
2023/04/13 02:47:05;;;;;;;9.97;9.17;;;;;;;9.50;100.00;-3739.16;5095852;28;20294;-61
2023/04/13 02:49:31;;;;;;;9.97;9.47;;;;;;;9.62;100.00;-3420.59;5095819;28;20191;-62
2023/04/13 02:51:58;;;;;;;11.00;10.40;;;;;;;9.47;100.00;-2783.22;5095545;28;20196;-61
2023/04/13 02:54:28;;;;;;;11.17;10.30;;;;;;;9.59;100.00;-2464.38;5095401;28;20188;-62
2023/04/13 02:56:55;;;;;;;12.43;11.33;;;;;;;9.55;100.00;-2464.41;5095833;28;20655;-62
2023/04/13 02:59:22;;;;;;;11.63;10.83;;;;;;;9.56;100.00;-2783.16;5095149;28;20188;-61
2023/04/13 03:01:49;;;;;;;11.73;10.73;;;;;;;9.51;100.00;-3420.53;5095435;28;20188;-62
2023/04/13 03:04:16;;;;;;;12.00;10.77;;;;;;;9.43;100.00;-2783.25;5095170;28;20202;-62
2023/04/13 03:06:43;;;;;;;12.27;11.17;;;;;;;9.35;100.00;-2783.28;5095000;28;20180;-61
2023/04/13 03:09:10;;;;;;;12.53;11.27;;;;;;;9.36;100.00;-3101.91;5095008;28;20339;-61
2023/04/13 03:11:38;;;;;;;12.30;11.23;;;;;;;9.25;100.00;-3420.44;5094860;28;20232;-61
2023/04/13 03:14:06;;;;;;;11.93;10.73;;;;;;;9.23;100.00;-4057.34;5095278;28;20195;-62
2023/04/13 03:16:33;;;;;;;11.43;10.60;;;;;;;9.17;100.00;-4057.28;5095207;28;20180;-61
2023/04/13 03:19:00;;;;;;;11.00;10.07;;;;;;;9.09;100.00;-4057.16;5094970;28;20233;-62
2023/04/13 03:21:27;;;;;;;10.70;10.10;;;;;;;9.17;100.00;-3738.84;5094821;28;20203;-61
2023/04/13 03:23:53;;;;;;;11.03;9.93;;;;;;;9.03;100.00;-3738.72;5093468;28;20199;-62
2023/04/13 03:26:20;;;;;;;10.77;9.80;;;;;;;9.14;100.00;-4375.59;5095098;28;20187;-62
2023/04/13 03:28:49;;;;;;;10.47;9.63;;;;;;;9.05;100.00;-4693.72;5094570;28;20204;-61
2023/04/13 03:31:16;;;;;;;10.20;9.27;;;;;;;9.21;100.00;-5012.47;5094854;28;20703;-61
2023/04/13 03:33:43;;;;;;;10.13;9.50;;;;;;;9.20;100.00;-5330.75;5094876;28;20578;-61
2023/04/13 03:36:11;;;;;;;11.40;10.70;;;;;;;9.12;100.00;-4693.91;5094861;28;20188;-62
2023/04/13 03:38:38;;;;;;;13.17;11.77;;;;;;;8.79;100.00;-4056.72;5094453;28;20184;-62
2023/04/13 03:41:05;;;;;;;12.50;11.33;;;;;;;8.63;100.00;-5646.72;5095108;28;20200;-62
2023/04/13 03:43:32;;;;;;;10.07;9.33;;;;;;;8.49;100.00;-5964.03;5094777;28;20269;-61
2023/04/13 03:46:00;;;;;;;11.47;10.53;;;;;;;8.60;100.00;-6282.50;5094382;28;20402;-62
2023/04/13 03:48:30;;;;;;;10.73;9.83;;;;;;;8.44;100.00;-5328.06;5094276;28;20233;-63
2023/04/13 03:50:57;;;;;;;9.80;9.10;;;;;;;8.60;100.00;-4374.53;5093430;28;20212;-62
2023/04/13 03:53:24;;;;;;;9.83;9.27;;;;;;;8.64;100.00;-3738.34;5094648;28;20291;-61
2023/04/13 03:55:52;;;;;;;9.60;9.00;;;;;;;8.73;100.00;-2465.34;5094443;28;20237;-61
2023/04/13 03:58:19;;;;;;;8.50;8.10;;;;;;;8.79;100.00;-554.53;5094595;28;20262;-63
2023/04/13 04:00:46;;;;;;;9.33;8.53;;;;;;;8.89;100.00;720.53;5094411;28;20176;-63
2023/04/13 04:03:16;;;;;;;8.57;8.17;;;;;;;9.08;100.00;84.16;5094296;28;20234;-63
2023/04/13 04:05:43;;;;;;;9.43;8.93;;;;;;;9.16;100.00;-1190.41;5094304;28;20208;-62
2023/04/13 04:08:09;;;;;;;9.37;8.53;;;;;;;9.14;100.00;-2464.88;5094324;28;20581;-61
2023/04/13 04:10:37;;;;;;;10.07;9.07;;;;;;;9.60;100.00;-5013.63;5094182;28;20287;-64
2023/04/13 04:13:04;;;;;;;9.10;8.60;;;;;;;10.05;100.00;-6608.38;5093713;28;20288;-61
2023/04/13 04:15:30;;;;;;;9.17;8.50;;;;;;;10.37;100.00;-1186.50;5093759;28;20661;-61
2023/04/13 04:17:59;;;;;;;11.10;8.83;;;;;;;10.89;100.00;7775.31;5093973;28;20192;-62
2023/04/13 04:20:27;;;;;;;8.87;7.83;;;;;;;11.04;100.00;25131.56;5094019;28;20555;-62
2023/04/13 04:22:59;;;;;;;7.93;7.43;;;;;;;11.22;100.00;54923.47;5093576;28;20184;-61
2023/04/13 04:25:26;;;;;;;6.83;6.53;;;;;;;11.46;100.00;87304.00;5093980;28;20180;-61
2023/04/13 04:27:56;;;;;;;12.87;6.80;;;;;;;11.84;100.00;118716.69;5093770;28;20325;-62
2023/04/13 04:30:28;;;;;;;7.80;7.00;;;;;;;11.89;100.00;149029.72;5093524;28;20184;-61
2023/04/13 04:32:55;;;;;;;8.43;7.60;;;;;;;11.80;100.00;149005.66;5093678;28;20270;-62
2023/04/13 04:35:25;;;;;;;9.77;8.87;;;;;;;11.60;100.00;148956.28;5093395;28;20271;-61
2023/04/13 04:37:54;;;;;;;12.00;10.90;;;;;;;11.82;100.00;149012.03;5093609;28;20181;-61
2023/04/13 04:40:21;;;;;;;11.40;10.60;;;;;;;11.99;100.00;149053.78;5093532;28;20195;-61
2023/04/13 04:42:48;;;;;;;9.73;9.07;;;;;;;12.20;100.00;149106.94;5093234;28;20205;-62
2023/04/13 04:45:15;;;;;;;9.73;9.17;;;;;;;12.32;100.00;149136.03;5093156;28;20194;-61
2023/04/13 04:47:43;;;;;;;10.00;9.30;;;;;;;12.56;100.00;149195.56;5092983;28;20298;-62
2023/04/13 04:50:11;;;;;;;9.00;8.30;;;;;;;13.13;100.00;149338.69;5093102;28;20184;-61
2023/04/13 04:52:38;;;;;;;10.60;7.23;;;;;;;13.53;100.00;149438.78;5093403;28;20180;-62
2023/04/13 04:55:08;;;;;;;7.50;6.67;;;;;;;13.87;100.00;149524.94;5092987;28;20188;-63
2023/04/13 04:57:35;;;;;;;12.37;6.03;;;;;;;14.13;100.00;149590.81;5093285;28;20554;-62
2023/04/13 05:00:08;;;;;;;7.03;6.47;;;;;;;14.21;100.00;149608.59;5092890;28;20194;-61
2023/04/13 05:02:35;;;;;;;10.87;6.30;;;;;;;14.35;100.00;149644.06;5093248;28;20188;-62
2023/04/13 05:05:02;;;;;;;7.80;6.83;;;;;;;14.56;100.00;149697.34;5091596;28;20192;-63
2023/04/13 05:07:29;;;;;;;7.93;7.20;;;;;;;14.40;100.00;149656.78;5092750;28;20303;-63
2023/04/13 05:09:56;;;;;;;7.67;6.97;;;;;;;14.64;100.00;149718.91;5092701;28;20301;-63
2023/04/13 05:12:25;;;;;;;8.63;6.90;;;;;;;15.01;100.00;149811.53;5092716;28;20231;-62
2023/04/13 05:14:51;;;;;;;7.30;6.63;;;;;;;16.07;100.00;150076.78;5092563;28;20210;-63
2023/04/13 05:17:18;;;;;;;19.57;8.63;;;;;;;16.63;100.00;150217.78;5092596;28;20180;-62
2023/04/13 05:19:45;;;;;;;9.53;6.90;;;;;;;17.19;100.00;150358.72;5092872;28;20184;-63
2023/04/13 05:22:12;;;;;;;8.53;6.57;;;;;;;17.86;100.00;150526.56;5092372;28;20190;-66
2023/04/13 05:24:39;;;;;;;17.80;8.57;;;;;;;18.09;100.00;150585.00;5092634;28;20619;-63
2023/04/13 05:27:08;;;;;;;8.93;6.87;;;;;;;17.37;100.00;150403.22;5092253;28;20182;-62
2023/04/13 05:29:36;;;;;;;12.63;5.27;;;;;;;16.82;100.00;150264.75;5092427;28;20574;-62
2023/04/13 05:32:07;;;;;;;32.73;9.23;;;;;;;16.57;100.00;150202.50;5092088;28;20184;-61
2023/04/13 05:34:36;;;;;;;12.70;5.60;;;;;;;16.35;100.00;150146.59;5092374;28;20619;-62
2023/04/13 05:37:04;;;;;;;11.67;5.50;;;;;;;16.74;100.00;150245.69;5092245;28;20275;-61
2023/04/13 05:39:31;;;;;;;38.90;8.17;;;;;;;16.87;100.00;150277.44;5092206;28;20647;-62
2023/04/13 05:41:58;;;;;;;11.63;5.53;;;;;;;16.70;100.00;150235.53;5091875;28;20184;-62
2023/04/13 05:44:25;;;;;;;11.63;5.40;;;;;;;17.15;100.00;150347.28;5092225;28;20195;-62
2023/04/13 05:46:53;;;;;;;14.27;5.13;;;;;;;19.53;100.00;150947.63;5092123;28;20188;-62
2023/04/13 05:49:20;;;;;;;4.83;3.63;;;;;;;19.40;99.32;150914.50;5091704;28;20269;-61
2023/04/13 05:51:47;;;;;;;5.63;3.73;;;;;;;19.79;96.54;151012.53;5091969;28;20555;-62
2023/04/13 05:54:16;;;;;;;8.47;3.50;;;;;;;20.69;85.18;151239.25;5091612;28;20317;-63
2023/04/13 05:56:43;;;;;;;9.50;3.87;;;;;;;20.18;93.53;151110.59;5091498;28;20184;-63
2023/04/13 05:59:11;;;;;;;9.83;3.90;;;;;;;19.77;91.86;151006.19;5092813;28;20194;-62
2023/04/13 06:01:38;;;;;;;7.10;3.63;;;;;;;19.55;92.39;150951.47;5091568;28;20203;-62
2023/04/13 06:04:08;;;;;;;3.03;2.80;;;;;;;19.52;90.60;150943.78;5091810;28;20572;-62
2023/04/13 06:06:35;;;;;;;6.23;3.23;;;;;;;18.41;97.31;150665.16;5091773;28;20558;-62
2023/04/13 06:09:04;;;;;;;5.97;2.70;;;;;;;18.11;98.87;150590.13;5091501;28;20265;-63
2023/04/13 06:11:31;;;;;;;3.37;3.00;;;;;;;18.37;100.00;150654.97;5091190;28;20217;-62
2023/04/13 06:14:01;;;;;;;6.70;3.93;;;;;;;19.18;92.27;150859.75;5091117;28;20183;-64
2023/04/13 06:16:28;;;;;;;7.20;6.70;;;;;;;20.09;88.98;151087.66;5091555;28;20208;-62
2023/04/13 06:18:55;;;;;;;32.90;12.20;;;;;;;20.55;87.45;151202.28;5091505;28;20184;-61
2023/04/13 06:21:24;;;;;;;15.43;10.67;;;;;;;20.33;88.14;151148.81;5091505;28;20211;-64
2023/04/13 06:23:51;;;;;;;11.30;10.13;;;;;;;19.41;94.15;150917.03;5089898;28;20184;-62
2023/04/13 06:26:18;;;;;;;17.73;12.03;;;;;;;18.85;100.00;150775.81;5091478;28;20210;-64
2023/04/13 06:28:45;;;;;;;13.30;11.03;;;;;;;18.23;100.00;150620.63;5091137;28;20257;-62
2023/04/13 06:31:12;;;;;;;15.17;11.10;;;;;;;17.90;100.00;150536.72;5090142;28;20206;-63
2023/04/13 06:33:42;;;;;;;11.90;10.60;;;;;;;17.52;100.00;150441.34;5091160;28;20180;-64
2023/04/13 06:36:10;;;;;;;10.57;9.57;;;;;;;17.64;100.00;150470.63;5091362;28;20267;-62
2023/04/13 06:38:38;;;;;;;10.47;9.03;;;;;;;17.57;100.00;150452.75;5089853;28;20184;-63
2023/04/13 06:41:08;;;;;;;12.20;10.53;;;;;;;17.25;100.00;150372.72;5091481;28;20200;-63
2023/04/13 06:43:35;;;;;;;13.47;10.03;;;;;;;17.39;100.00;150407.03;5091259;28;20571;-63
2023/04/13 06:46:03;;;;;;;9.53;8.67;;;;;;;17.26;100.00;150375.28;5091165;28;20191;-62
2023/04/13 06:48:30;;;;;;;9.70;7.23;;;;;;;17.25;100.00;150374.00;5090583;28;20208;-63
2023/04/13 06:50:57;;;;;;;7.57;6.83;;;;;;;17.46;100.00;150424.81;5090859;28;20195;-63
2023/04/13 06:53:27;;;;;;;6.47;6.13;;;;;;;17.65;100.00;150474.41;5091772;28;20180;-62
2023/04/13 06:55:56;;;;;;;4.97;4.17;;;;;;;17.90;100.00;150536.72;5091589;28;20653;-64
2023/04/13 06:58:23;;;;;;;5.10;4.90;;;;;;;18.55;100.00;150700.75;5090697;28;20192;-63
2023/04/13 07:00:50;;;;;;;9.37;6.03;;;;;;;18.95;100.00;150801.28;5091519;28;20191;-63
2023/04/13 07:03:17;;;;;;;5.83;5.33;;;;;;;18.81;99.12;150765.63;5091376;28;20180;-63
2023/04/13 07:05:44;;;;;;;6.40;5.83;;;;;;;18.85;100.00;150774.53;5090728;28;20245;-63
2023/04/13 07:08:11;;;;;;;6.97;6.57;;;;;;;18.71;100.00;150740.22;5090751;28;20226;-64
2023/04/13 07:10:39;;;;;;;8.87;6.43;;;;;;;18.53;100.00;150695.72;5089643;28;20204;-62
2023/04/13 07:13:08;;;;;;;8.33;7.40;;;;;;;18.26;100.00;150628.25;5090776;28;20231;-62
2023/04/13 07:15:36;;;;;;;10.17;6.73;;;;;;;18.20;100.00;150612.97;5091330;28;20523;-63
2023/04/13 07:18:03;;;;;;;8.03;7.33;;;;;;;18.10;100.00;150587.56;5090676;28;20208;-62
2023/04/13 07:20:30;;;;;;;7.83;7.23;;;;;;;18.04;100.00;150571.00;5091154;28;20210;-62
2023/04/13 07:22:57;;;;;;;8.23;7.70;;;;;;;18.23;100.00;150619.34;5090730;28;20261;-62
2023/04/13 07:25:24;;;;;;;7.83;7.00;;;;;;;18.10;100.00;150586.28;5091405;28;20232;-62
2023/04/13 07:27:54;;;;;;;15.83;7.10;;;;;;;18.15;100.00;150599.00;5094287;28;20204;-61
2023/04/13 07:30:22;;;;;;;7.83;7.10;;;;;;;18.10;100.00;150587.56;5094879;28;20199;-61
2023/04/13 07:32:49;;;;;;;7.80;6.40;;;;;;;18.32;100.00;150640.97;5094948;28;20187;-61
2023/04/13 07:35:16;;;;;;;8.53;6.40;;;;;;;18.52;100.00;150691.81;5093718;28;20615;-61
2023/04/13 07:37:43;;;;;;;8.83;6.37;;;;;;;18.43;100.00;150670.22;5093921;28;20233;-62
2023/04/13 07:40:11;;;;;;;7.23;6.73;;;;;;;18.53;100.00;150694.44;5094131;28;20192;-61
2023/04/13 07:42:38;;;;;;;18.93;7.87;;;;;;;18.53;100.00;150695.72;5093911;28;20188;-60
2023/04/13 07:45:06;;;;;;;24.27;10.00;;;;;;;18.55;100.00;150699.50;5094216;28;20184;-60
2023/04/13 07:47:35;;;;;;;9.37;8.57;;;;;;;18.79;100.00;150760.56;5094087;28;20184;-60
2023/04/13 07:50:04;;;;;;;9.33;7.77;;;;;;;18.96;100.00;150802.56;5094426;28;20207;-62
2023/04/13 07:52:31;;;;;;;5.13;4.77;;;;;;;19.07;94.93;150830.53;5093928;28;20195;-62
2023/04/13 07:54:58;;;;;;;6.60;5.30;;;;;;;19.04;99.53;150822.91;5093731;28;20257;-62
2023/04/13 07:57:26;;;;;;;5.17;4.40;;;;;;;19.00;96.24;150812.72;5094273;28;20195;-62
2023/04/13 07:59:53;;;;;;;8.70;5.30;;;;;;;19.12;100.00;150843.25;5094243;28;20550;-62
2023/04/13 08:02:21;;;;;;;6.03;5.40;;;;;;;19.09;100.00;150835.63;5094171;28;20195;-61
2023/04/13 08:04:49;;;;;;;7.03;6.63;;;;;;;19.25;95.37;150875.06;5093739;28;20195;-61
2023/04/13 08:07:17;;;;;;;9.00;6.47;;;;;;;19.32;98.83;150894.13;5094156;28;20195;-61
2023/04/13 08:09:45;;;;;;;5.97;5.57;;;;;;;19.50;99.48;150938.72;5092747;28;20207;-62
2023/04/13 08:12:12;;;;;;;5.00;4.60;;;;;;;19.44;100.00;150923.44;5093516;28;20327;-62
2023/04/13 08:14:42;;;;;;;10.20;9.17;;;;;;;19.59;92.59;150962.94;5092930;28;20547;-61
2023/04/13 08:17:10;;;;;;;6.53;6.13;;;;;;;19.81;88.14;151016.38;5094069;28;20188;-61
2023/04/13 08:19:37;;;;;;;8.27;4.20;;;;;;;19.71;89.89;150990.91;5093977;28;20188;-62
2023/04/13 08:22:05;;;;;;;4.33;4.13;;;;;;;19.86;90.68;151029.13;5091955;28;20180;-61
2023/04/13 08:24:32;;;;;;;4.60;4.20;;;;;;;19.78;90.99;151008.72;5093437;28;20192;-62
2023/04/13 08:26:59;;;;;;;5.40;4.87;;;;;;;20.14;93.20;151099.13;5093522;28;20195;-61
2023/04/13 08:29:26;;;;;;;4.57;4.00;;;;;;;20.13;84.82;151097.84;5093978;28;20200;-62
2023/04/13 08:31:55;;;;;;;4.80;3.50;;;;;;;20.27;87.06;151132.22;5093466;28;20180;-62
2023/04/13 08:34:22;;;;;;;3.23;2.87;;;;;;;20.27;87.39;151133.50;5093933;28;20271;-63
2023/04/13 08:36:49;;;;;;;3.40;3.10;;;;;;;19.94;82.13;151050.72;5093422;28;20184;-61
2023/04/13 08:39:17;;;;;;;3.90;3.63;;;;;;;20.09;85.71;151087.66;5093223;28;20184;-61
2023/04/13 08:41:45;;;;;;;4.83;4.57;;;;;;;20.24;83.57;151125.81;5093080;28;20241;-62
2023/04/13 08:44:15;;;;;;;2.80;2.70;;;;;;;20.35;80.01;151153.91;5092559;28;20184;-61
2023/04/13 08:46:46;;;;;;;3.90;3.50;;;;;;;20.32;83.93;151146.31;5093286;28;20195;-63
2023/04/13 08:49:14;;;;;;;8.07;5.17;;;;;;;20.40;91.73;151166.66;5093190;28;20210;-63
2023/04/13 08:51:44;;;;;;;11.10;5.03;;;;;;;20.46;88.54;151181.91;5091905;28;20180;-63
2023/04/13 08:54:13;;;;;;;8.90;4.90;;;;;;;20.43;91.71;151174.28;5093141;28;20191;-63
2023/04/13 08:56:45;;;;;;;5.50;5.00;;;;;;;20.67;87.07;151232.84;5092264;28;20237;-62
2023/04/13 08:59:14;;;;;;;8.87;5.73;;;;;;;20.51;93.83;151193.38;5092766;28;20188;-63
2023/04/13 09:01:41;;;;;;;5.70;5.23;;;;;;;21.11;92.32;151344.97;5093021;28;20257;-63
2023/04/13 09:04:10;;;;;;;7.77;6.07;;;;;;;21.09;86.71;151339.84;5092859;28;20215;-63
2023/04/13 09:06:39;;;;;;;8.97;5.87;;;;;;;21.00;84.31;151315.69;5092933;28;20268;-64
2023/04/13 09:09:08;;;;;;;5.40;5.10;;;;;;;20.94;76.19;151301.66;5092565;28;20200;-64
2023/04/13 09:11:36;;;;;;;5.60;4.70;;;;;;;20.80;72.22;151265.97;5092702;28;20223;-64
2023/04/13 09:14:05;;;;;;;5.53;5.27;;;;;;;20.65;71.55;151227.78;5092830;28;20184;-64
2023/04/13 09:16:39;;;;;;;4.78;3.80;;;;;;;20.21;75.79;151118.22;5093052;28;20191;-63
2023/04/13 09:19:08;;;;;;;3.60;3.30;;;;;;;20.32;78.80;151146.31;5092745;28;20228;-64
2023/04/13 09:21:39;;;;;;;4.03;3.40;;;;;;;20.72;84.99;151245.59;5092813;28;20635;-64
2023/04/13 09:24:06;;;;;;;3.90;3.57;;;;;;;20.82;87.24;151272.38;5092230;28;20186;-64
2023/04/13 09:26:40;;;;;;;3.03;2.83;;;;;;;20.82;81.00;151272.38;5092704;28;20218;-64
2023/04/13 09:29:12;;;;;;;7.10;3.37;;;;;;;20.83;84.78;151273.66;5091932;28;20204;-63
2023/04/13 09:31:39;;;;;;;3.77;3.20;;;;;;;20.69;88.17;151239.25;5091539;28;20194;-63
2023/04/13 09:34:07;;;;;;;2.97;2.37;;;;;;;21.08;79.15;151336.06;5091834;28;20207;-63
2023/04/13 09:36:34;;;;;;;2.53;2.23;;;;;;;20.89;78.57;151288.91;5091561;28;20221;-64
2023/04/13 09:39:01;;;;;;;2.70;2.50;;;;;;;20.91;73.26;151295.31;5088703;28;20283;-62
2023/04/13 09:41:32;;;;;;;1.47;1.47;;;;;;;21.19;67.01;151365.41;5092082;28;20275;-64
2023/04/13 09:43:59;;;;;;;4.40;2.60;;;;;;;21.35;71.76;151404.91;5090929;28;20203;-63
2023/04/13 09:46:28;;;;;;;1.40;1.40;;;;;;;21.12;59.63;151347.59;5092128;28;20605;-63
2023/04/13 09:49:02;;;;;;;1.93;1.83;;;;;;;21.07;63.50;151334.78;5091285;28;20662;-64
2023/04/13 09:51:36;;;;;;;1.60;1.50;;;;;;;21.27;69.87;151384.50;5091983;28;20697;-63
2023/04/13 09:54:05;;;;;;;2.10;2.00;;;;;;;21.37;69.84;151410.00;5091946;28;20183;-63
2023/04/13 09:56:43;;;;;;;1.98;1.70;;;;;;;21.74;63.91;151504.31;5091813;28;20184;-63
2023/04/13 09:59:10;;;;;;;3.95;1.65;;;;;;;21.55;64.47;151454.63;5091576;28;20231;-63
2023/04/13 10:01:40;;;;;;;3.00;1.20;;;;;;;21.52;63.68;151446.94;5091973;28;20184;-64
2023/04/13 10:04:09;;;;;;;1.55;1.30;;;;;;;21.73;61.35;151501.75;5091395;28;20251;-63
2023/04/13 10:06:41;;;;;;;2.20;1.57;;;;;;;21.59;61.45;151464.81;5091450;28;20192;-63
2023/04/13 10:09:09;;;;;;;3.50;1.33;;;;;;;21.56;59.44;151458.41;5091802;28;20291;-65
2023/04/13 10:11:41;;;;;;;1.30;1.20;;;;;;;21.58;55.21;151463.53;5091199;28;20220;-63
2023/04/13 10:14:16;;;;;;;1.37;1.27;;;;;;;21.47;58.24;151434.25;5091401;28;20195;-63
2023/04/13 10:17:11;;;;;;;1.30;1.20;;;;;;;21.63;63.79;151476.28;5091439;28;20183;-63
2023/04/13 10:19:42;;;;;;;2.40;1.60;;;;;;;21.82;60.43;151523.44;5091485;28;20276;-65
2023/04/13 10:22:10;;;;;;;1.77;1.20;;;;;;;22.06;59.92;151584.69;5091696;28;20205;-63
2023/04/13 10:24:38;;;;;;;1.95;1.50;;;;;;;22.21;62.61;151621.66;5091299;28;20640;-64
2023/04/13 10:27:11;;;;;;;1.20;1.20;;;;;;;22.12;57.82;151598.69;5091130;28;20184;-64
2023/04/13 10:29:38;;;;;;;1.20;1.10;;;;;;;22.04;53.94;151579.56;5091486;28;20206;-63
2023/04/13 10:32:10;;;;;;;1.35;1.35;;;;;;;22.11;52.30;151596.13;5091222;28;20607;-62
2023/04/13 10:34:38;;;;;;;2.42;2.30;;;;;;;20.95;66.75;151304.22;5091205;28;20183;-63
2023/04/13 10:37:18;;;;;;;2.80;2.00;;;;;;;19.92;77.57;151044.38;5091499;28;20249;-62
2023/04/13 10:39:49;;;;;;;4.40;2.30;;;;;;;19.17;82.95;150855.97;5091165;28;20195;-62
2023/04/13 10:42:16;;;;;;;2.30;1.63;;;;;;;19.02;80.02;150817.78;5091005;28;20188;-62
2023/04/13 10:44:44;;;;;;;5.00;1.83;;;;;;;18.46;82.68;150676.59;5091227;28;20188;-61
2023/04/13 10:47:14;;;;;;;1.57;1.53;;;;;;;18.65;81.78;150724.94;5091576;28;20540;-61
2023/04/13 10:49:41;;;;;;;1.80;1.70;;;;;;;18.33;84.06;150643.53;5091730;28;20225;-61
2023/04/13 10:52:10;;;;;;;1.80;1.70;;;;;;;18.20;86.46;150611.75;5091171;28;20270;-61
2023/04/13 10:54:37;;;;;;;3.67;2.00;;;;;;;18.23;84.27;150619.34;5091330;28;20184;-63
2023/04/13 10:57:07;;;;;;;2.97;1.77;;;;;;;17.89;85.03;150532.91;5091075;28;20275;-61
2023/04/13 10:59:42;;;;;;;1.80;1.67;;;;;;;17.84;88.25;150521.47;5091671;28;20176;-61
2023/04/13 11:02:15;;;;;;;3.10;1.70;;;;;;;17.58;89.27;150456.63;5095036;28;20219;-60
2023/04/13 11:04:44;;;;;;;1.40;1.40;;;;;;;17.16;91.69;150349.84;5095320;28;20211;-61
2023/04/13 11:07:14;;;;;;;1.90;1.80;;;;;;;17.09;96.87;150333.34;5095045;28;20195;-61
2023/04/13 11:09:42;;;;;;;1.63;1.53;;;;;;;16.75;100.00;150246.97;5094827;28;20208;-61
2023/04/13 11:12:09;;;;;;;2.30;2.20;;;;;;;16.48;100.00;150179.59;5094642;28;20238;-62
2023/04/13 11:14:37;;;;;;;1.87;1.77;;;;;;;16.57;100.00;150202.50;5094793;28;20188;-61
2023/04/13 11:17:06;;;;;;;2.20;2.10;;;;;;;16.55;100.00;150196.13;5094805;28;20205;-61
2023/04/13 11:19:46;;;;;;;2.63;2.20;;;;;;;16.43;100.00;150166.91;5094721;28;20184;-60
2023/04/13 11:22:17;;;;;;;3.83;1.90;;;;;;;16.59;100.00;150207.56;5094819;28;20184;-60
2023/04/13 11:24:45;;;;;;;2.43;1.73;;;;;;;16.79;100.00;150258.41;5095054;28;20646;-60
2023/04/13 11:27:17;;;;;;;2.17;2.07;;;;;;;16.86;100.00;150274.91;5094503;28;20739;-62